Tiempo atmosférico en la estación meteorológica de Villarrobledo, Albacete (718 m.)



Fecha
DESCASC
Temp. máxima en grados centígrados (hora)
DESCASC
Temp. mínima en grados centígrados (hora)
DESCASC
Temp. media en grados centígrados
DESCASC
Racha de viento máxima en m/sg (hora)
DESCASC
Velocidad máxima media en intervalos de 10 minutos(hora)
DESCASC
Precipitaciones diarias en mm
DESCASC
Precipitaciones de 00:00 a 06:00 en mm
DESCASC
Precipitaciones de 06:00 a 12:00 en mm
DESCASC
Precipitaciones de 12:00 a 18:00 en mm
DESCASC
Precipitaciones de 18:00 a 24:00 en mm
DESCASC
25-04-2019 13.8 (14:30) 7.3 (23:59) 10.6 17.22 (17:30) 10.28 (17:30) 5.4 2.2 2.4 0.8 0
24-04-2019 15.9 (17:50) 3.7 (07:10) 9.8 18.33 (14:20) 12.22 (18:00) 0 0 0 0 0
23-04-2019 13 (16:50) 5.3 (23:59) 9.2 15.83 (18:20) 10.28 (18:30) 0.2 0 0.2 0 0
22-04-2019 14.9 (16:40) 7.9 (00:00) 11.4 9.17 (13:30) 6.39 (13:30) 6.8 6.6 0.2 0 0
21-04-2019 11.8 (13:30) 6.9 (00:00) 9.4 6.39 (14:30) 4.17 (14:30) 5.2 0.4 0 0 4.8
20-04-2019 12.1 (11:40) 7.3 (00:00) 9.7 14.72 (18:50) 8.89 (18:20) 19 14.2 0 4.8 0
19-04-2019 10.9 (12:50) 7.1 (00:00) 9 7.22 (14:50) 4.44 (16:10) 34.6 0.2 1.4 14.6 18.4
18-04-2019 11.7 (00:00) 7.6 (00:00) 9.6 10 (00:20) 4.44 (07:30) 25 5 15.4 4.4 0.2
17-04-2019 21.1 (17:00) 9.1 (00:00) 15.1 15.28 (11:00) 9.17 (18:30) 0 0 0 0 0
16-04-2019 24.3 (16:10) 6.7 (00:00) 15.5 12.22 (23:20) 5.28 (21:40) 0 0 0 0 0
15-04-2019 25.8 (15:50) 9.3 (00:00) 17.5 14.44 (17:30) 10 (20:00) 0 0 0 0 0
14-04-2019 24 (16:40) 7.8 (00:00) 15.9 9.72 (15:30) 5.83 (17:20) 0 0 0 0 0
13-04-2019 22.6 (18:20) 2.6 (00:00) 12.6 9.72 (16:50) 5.28 (13:40) 0 0 0 0 0
12-04-2019 19.6 (17:20) 1.3 (00:00) 10.5 10.83 (14:30) 6.11 (15:50) 0 0 0 0 0
11-04-2019 19 (18:10) 1.7 (00:00) 10.4 10.83 (16:10) 6.11 (16:10) 0.2 0.2 0 0 0
10-04-2019 14.1 (16:10) 4.4 (00:00) 9.3 16.11 (17:30) 8.89 (17:00) 2.2 1.4 0 0 0.8
09-04-2019 13 (18:10) 4.5 (00:00) 8.8 17.78 (18:30) 10.83 (15:50) 0.8 0 0 0 0.8
08-04-2019 16.5 (16:20) 7.7 (00:00) 12.1 15 (17:00) 9.44 (17:00) 4 0.8 2 1.2 0
07-04-2019 12.9 (17:00) 4.3 (00:00) 8.6 13.61 (03:40) 8.89 (17:20) 0.8 0.6 0.2 0 0
06-04-2019 10.9 (16:30) 3.4 (00:00) 7.1 16.94 (14:30) 10 (14:30) 2.8 0 0.4 2.4 0
05-04-2019 9 (18:00) 4.2 (00:00) 6.6 16.11 (15:40) 11.11 (20:00) 3.4 0 0.6 2.6 0.2
04-04-2019 16.3 (18:20) 0.4 (00:00) 8.3 7.78 (14:50) 4.44 (17:50) 0 0 0 0 0
03-04-2019 18.4 (16:40) 6.7 (00:00) 12.5 15.83 (16:10) 10.28 (18:30) 0 0 0 0 0
02-04-2019 19.3 (18:00) 6.4 (00:00) 12.8 8.89 (15:30) 5.83 (20:00) 0 0 0 0 0
01-04-2019 16.3 (12:20) 8.3 (00:00) 12.3 6.67 (17:20) 3.89 (17:20) 2.4 0 0 2.2 0.2
31-03-2019 9.4 (15:00) 5.8 (00:00) 7.6 9.17 (01:00) 5.83 (03:10) 12.6 0 11.6 0.6 0.4
30-03-2019 18.3 (16:40) 4 (00:00) 11.1 12.78 (22:30) 6.94 (18:50) 0 0 0 0 0
29-03-2019 15 (16:40) 1.7 (00:00) 8.4 13.89 (12:30) 8.33 (12:50) 0 0 0 0 0
28-03-2019 18.5 (15:40) -0.5 (-00:0) 9 10.28 (18:20) 5.28 (18:10) 0 0 0 0 0
27-03-2019 17.3 (16:40) 0.7 (00:00) 9 11.67 (00:40) 6.94 (00:40) 0 0 0 0 0

Gráficas

Temp. máximas Temp. mínimas Temp. medias Precipitaciones Rachas de viento máximas Velocidades máximas media en intervalos de 10 minutos

Datos horarios

Fecha y hora oficial Temperatura (ºC) Velocidad del viento (km/h) Dirección del viento Racha (km/h) Dirección de racha Precipitación (mm) Presión (hPa) Tendencia (hPa) Humedad (%)
2019-04-25 23:00:00 7.9 15 Sudoeste 32 Sudoeste 0 -- -- 79
2019-04-25 22:00:00 8.3 17 Sudoeste 37 Sudoeste 0 -- -- 77
2019-04-25 21:00:00 9.5 20 Sudoeste 43 Oeste 0 -- -- 73
2019-04-25 20:00:00 10.6 24 Oeste 46 Oeste 0 -- -- 67
2019-04-25 19:00:00 10.1 36 Oeste 60 Oeste 0 -- -- 70
2019-04-25 18:00:00 12.2 29 Oeste 62 Oeste 0.8 -- -- 71
2019-04-25 17:00:00 13.1 33 Oeste 49 Oeste 0 -- -- 58
2019-04-25 16:00:00 11.6 36 Oeste 61 Oeste 0 -- -- 69
2019-04-25 15:00:00 13.3 29 Sudoeste 54 Sudoeste 0 -- -- 57
2019-04-25 14:00:00 13.3 30 Sudoeste 51 Sudoeste 0 -- -- 58
2019-04-25 13:00:00 11.3 27 Sudoeste 47 Oeste 0 -- -- 71
2019-04-25 12:00:00 10.8 24 Sudoeste 40 Sudoeste 0 -- -- 80
2019-04-25 11:00:00 8.6 19 Sudoeste 32 Sudoeste 0.2 -- -- 89
2019-04-25 10:00:00 8.3 17 Sudoeste 30 Oeste 0 -- -- 91
2019-04-25 09:00:00 8.1 19 Sudoeste 34 Sudoeste 0.8 -- -- 91
2019-04-25 08:00:00 8.1 21 Oeste 42 Oeste 0.8 -- -- 91
2019-04-25 07:00:00 8.3 19 Sudoeste 36 Sudoeste 0.6 -- -- 91
2019-04-25 06:00:00 8.5 23 Sudoeste 41 Sudoeste 0.4 -- -- 91
2019-04-25 05:00:00 9 25 Sudoeste 55 Oeste 1.8 -- -- 91
2019-04-25 04:00:00 11.7 29 Sudoeste 48 Sudoeste 0 -- -- 80
2019-04-25 03:00:00 11.7 28 Sudoeste 48 Sudoeste 0 -- -- 79
2019-04-25 02:00:00 11.3 20 Sudoeste 37 Sur 0 -- -- 80
2019-04-25 01:00:00 10.7 17 Sudoeste 42 Sudoeste 0 -- -- 85
2019-04-25 00:00:00 11.4 22 Sudoeste 44 Sudoeste 0 -- -- 79
2019-04-24 23:00:00 11.4 22 Sudoeste 42 Sudoeste 0 -- -- 80
2019-04-24 22:00:00 12 21 Sudoeste 56 Sudoeste 0 -- -- 74
2019-04-24 21:00:00 12.3 23 Sudoeste 55 Sudoeste 0 -- -- 72
2019-04-24 20:00:00 13.5 35 Sudoeste 63 Sudoeste 0 -- -- 64
2019-04-24 19:00:00 14.9 31 Sudoeste 60 Sudoeste 0 -- -- 58
2019-04-24 18:00:00 15.3 44 Sudoeste 65 Sudoeste 0 -- -- 54
2019-04-24 17:00:00 15.3 42 Sudoeste 62 Sudoeste 0 -- -- 54
2019-04-24 16:00:00 15.2 31 Sudoeste 63 Sudoeste 0 -- -- 55
2019-04-24 15:00:00 14.1 35 Sudoeste 66 Sudoeste 0 -- -- 60
2019-04-24 14:00:00 12.6 35 Sudoeste 61 Sudoeste 0 -- -- 64
2019-04-24 13:00:00 11.4 30 Sudoeste 61 Sur 0 -- -- 67
2019-04-24 12:00:00 11.1 33 Sudoeste 58 Sudoeste 0 -- -- 66
2019-04-24 11:00:00 10 35 Sudoeste 54 Sudoeste 0 -- -- 67
2019-04-24 10:00:00 8.5 21 Sudoeste 37 Sur 0 -- -- 71
2019-04-24 09:00:00 6.7 15 Sudoeste 26 Sudoeste 0 -- -- 79
2019-04-24 08:00:00 4.2 14 Sudoeste 24 Sudoeste 0 -- -- 87
2019-04-24 07:00:00 3.8 13 Sudoeste 19 Sudoeste 0 -- -- 87
2019-04-24 06:00:00 4.2 11 Sudoeste 23 Sudoeste 0 -- -- 86
2019-04-24 05:00:00 4.8 14 Sudoeste 25 Sudoeste 0 -- -- 85
2019-04-24 04:00:00 4.6 12 Sudoeste 34 Sudoeste 0 -- -- 85
2019-04-24 03:00:00 4.8 14 Sudoeste 23 Sudoeste 0 -- -- 87
2019-04-24 02:00:00 4.5 11 Sudoeste 18 Sudoeste 0 -- -- 86
2019-04-24 01:00:00 4.9 16 Sudoeste 28 Sudoeste 0 -- -- 85
2019-04-24 00:00:00 5.3 18 Sudoeste 28 Sudoeste 0 -- -- 83
2019-04-23 23:00:00 6.3 17 Sudoeste 36 Sudoeste 0 -- -- 78
2019-04-23 22:00:00 6.5 26 Sudoeste 47 Sudoeste 0 -- -- 76
2019-04-23 21:00:00 6.7 26 Sudoeste 45 Sudoeste 0 -- -- 78
2019-04-23 20:00:00 8.7 19 Sudoeste 33 Sudoeste 0 -- -- 72
2019-04-23 19:00:00 8.5 19 Sudoeste 57 Oeste 0 -- -- 71
2019-04-23 18:00:00 12.1 26 Oeste 42 Oeste 0 -- -- 49
2019-04-23 17:00:00 12.5 22 Sudoeste 39 Sudoeste 0 -- -- 52
2019-04-23 16:00:00 11 18 Sudoeste 36 Oeste 0 -- -- 64
2019-04-23 15:00:00 9.2 21 Oeste 40 Oeste 0 -- -- 74
2019-04-23 14:00:00 10.9 27 Oeste 48 Sudoeste 0 -- -- 77
2019-04-23 13:00:00 12.1 23 Sudoeste 39 Sudoeste 0 -- -- 69
2019-04-23 12:00:00 9.9 8 Sudoeste 43 Oeste 0.2 -- -- 85
2019-04-23 11:00:00 10.8 23 Sudoeste 44 Sudoeste 0 -- -- 78
2019-04-23 10:00:00 11.1 14 Sudoeste 23 Sudoeste 0 -- -- 78
2019-04-23 09:00:00 10.2 8 Sudoeste 18 Sudoeste 0 -- -- 80
2019-04-23 08:00:00 9.5 5 Sudoeste 17 Sudoeste 0 -- -- 82
2019-04-23 07:00:00 9.7 11 Sudoeste 24 Sudoeste 0 -- -- 81
2019-04-23 06:00:00 9.8 16 Sudoeste 31 Sudoeste 0 -- -- 80
2019-04-23 05:00:00 9.7 15 Sudoeste 30 Sur 0 -- -- 81
2019-04-23 04:00:00 10 12 Sudoeste 30 Sudoeste 0 -- -- 80
2019-04-23 03:00:00 10.8 16 Sudoeste 31 Sudoeste 0 -- -- 78
2019-04-23 02:00:00 11.5 15 Sudoeste 30 Sudoeste 0 -- -- 74
2019-04-23 01:00:00 10.7 9 Sudoeste 19 Sudoeste 0 -- -- 79
2019-04-23 00:00:00 10.1 6 Sudoeste 15 Sudoeste 0 -- -- 80
2019-04-22 23:00:00 11.4 9 Sudoeste 22 Sur 0 -- -- 76
2019-04-22 22:00:00 11.4 13 Sudoeste 21 Sudoeste 0 -- -- 77
2019-04-22 21:00:00 12.3 4 Sudoeste 15 Sudoeste 0 -- -- 72
2019-04-22 20:00:00 14.7 7 Sudoeste 23 Sudoeste 0 -- -- 63
2019-04-22 19:00:00 14 6 Sudoeste 22 Sudoeste 0 -- -- 68
2019-04-22 18:00:00 14.2 15 Sudoeste 26 Sudoeste 0 -- -- 63
2019-04-22 17:00:00 14.3 13 Sudoeste 28 Oeste 0 -- -- 64
2019-04-22 16:00:00 14 19 Oeste 32 Sudoeste 0 -- -- 68
2019-04-22 15:00:00 14.2 19 Oeste 33 Oeste 0 -- -- 70
2019-04-22 14:00:00 13.6 21 Oeste 33 Oeste 0 -- -- 69
2019-04-22 13:00:00 12.3 22 Oeste 32 Oeste 0 -- -- 74
2019-04-22 12:00:00 11.4 19 Oeste 31 Oeste 0 -- -- 78
2019-04-22 11:00:00 10.2 17 Oeste 24 Sudoeste 0 -- -- 91
2019-04-22 10:00:00 8.7 12 Oeste 19 Oeste 0 -- -- 94
2019-04-22 09:00:00 8 10 Oeste 17 Oeste 0.2 -- -- 95
2019-04-22 08:00:00 8 7 Noroeste 15 Oeste 0 -- -- 95
2019-04-22 07:00:00 7.9 10 Oeste 17 Oeste 0 -- -- 94
2019-04-22 06:00:00 7.9 11 Oeste 17 Oeste 0.2 -- -- 94
2019-04-22 05:00:00 7.9 7 Oeste 12 Oeste 0 -- -- 94
2019-04-22 04:00:00 8 5 Noroeste 12 Noroeste 0.6 -- -- 94
2019-04-22 03:00:00 8 7 Noroeste 11 Noroeste 1.6 -- -- 94
2019-04-22 02:00:00 8 3 Norte 7 Nordeste 2.2 -- -- 93
2019-04-22 01:00:00 8.2 3 Norte 8 Norte 2 -- -- 93
2019-04-22 00:00:00 8.3 3 Norte 12 Nordeste 1.4 -- -- 92
2019-04-21 23:00:00 8.4 4 Nordeste 13 Nordeste 1.2 -- -- 91
2019-04-21 22:00:00 8.6 4 Nordeste 10 Norte 1.2 -- -- 90
2019-04-21 21:00:00 9.2 5 Noroeste 11 Oeste 0.4 -- -- 90
2019-04-21 20:00:00 9.3 6 Oeste 13 Oeste 0.4 -- -- 88
2019-04-21 19:00:00 9.9 7 Noroeste 13 Noroeste 0.2 -- -- 83
2019-04-21 18:00:00 10.7 7 Noroeste 12 Noroeste 0 -- -- 79
2019-04-21 17:00:00 11 3 Nordeste 15 Nordeste 0 -- -- 76
2019-04-21 16:00:00 11.2 7 Nordeste 17 Nordeste 0 -- -- 73
2019-04-21 15:00:00 10.5 10 Nordeste 23 Nordeste 0 -- -- 75
2019-04-21 14:00:00 11.5 8 Nordeste 16 Norte 0 -- -- 65
2019-04-21 13:00:00 11.2 8 Nordeste 16 Nordeste 0 -- -- 66
2019-04-21 12:00:00 10.5 9 Nordeste 17 Nordeste 0 -- -- 70
2019-04-21 11:00:00 9.5 6 Nordeste 12 Nordeste 0 -- -- 76
2019-04-21 10:00:00 8.8 5 Nordeste 12 Nordeste 0 -- -- 80
2019-04-21 09:00:00 7.6 6 Nordeste 12 Nordeste 0 -- -- 84
2019-04-21 08:00:00 7 5 Norte 10 Norte 0 -- -- 85
2019-04-21 07:00:00 7 4 Norte 10 Nordeste 0 -- -- 85
2019-04-21 06:00:00 7.1 7 Nordeste 15 Nordeste 0 -- -- 85
2019-04-21 05:00:00 6.9 5 Norte 16 Nordeste 0 -- -- 87
2019-04-21 04:00:00 6.9 13 Nordeste 22 Nordeste 0 -- -- 86
2019-04-21 03:00:00 7 12 Nordeste 22 Norte 0.4 -- -- 85
2019-04-21 02:00:00 7.6 9 Nordeste 21 Nordeste 0 -- -- 80
2019-04-21 01:00:00 8 10 Nordeste 21 Nordeste 0 -- -- 80
2019-04-21 00:00:00 8.2 12 Nordeste 20 Nordeste 0 -- -- 81
2019-04-20 23:00:00 8.3 11 Nordeste 22 Nordeste 0 -- -- 81
2019-04-20 22:00:00 9 10 Nordeste 17 Norte 0 -- -- 79
2019-04-20 21:00:00 9.9 12 Nordeste 33 Nordeste 0 -- -- 72
2019-04-20 20:00:00 10.3 20 Nordeste 37 Nordeste 0 -- -- 73
2019-04-20 19:00:00 10.6 27 Nordeste 53 Nordeste 0 -- -- 74
2019-04-20 18:00:00 9.3 21 Nordeste 35 Nordeste 0.4 -- -- 85
2019-04-20 17:00:00 9.4 21 Este 41 Este 1.8 -- -- 80
2019-04-20 16:00:00 9.5 17 Nordeste 28 Nordeste 2.4 -- -- 84
2019-04-20 15:00:00 10.7 13 Sudeste 27 Este 0.2 -- -- 74
2019-04-20 14:00:00 11.4 7 Este 45 Nordeste 0 -- -- 67
2019-04-20 13:00:00 11.9 14 Este 35 Nordeste 0 -- -- 62
2019-04-20 12:00:00 12 18 Este 41 Este 0 -- -- 63
2019-04-20 11:00:00 12 26 Este 48 Este 0 -- -- 61
2019-04-20 10:00:00 11.1 23 Nordeste 38 Este 0 -- -- 70
2019-04-20 09:00:00 9.5 20 Nordeste 29 Este 0 -- -- 92
2019-04-20 08:00:00 7.9 4 Este 18 Nordeste 0 -- -- 95
2019-04-20 07:00:00 7.8 11 Norte 22 Nordeste 0 -- -- 95
2019-04-20 06:00:00 8 6 Norte 10 Norte 0 -- -- 96
2019-04-20 05:00:00 7.9 4 Noroeste 10 Norte 0.2 -- -- 96
2019-04-20 04:00:00 7.6 7 Noroeste 18 Noroeste 0.4 -- -- 96
2019-04-20 03:00:00 7.4 10 Noroeste 22 Noroeste 3.2 -- -- 95
2019-04-20 02:00:00 7.4 8 Norte 16 Norte 4.8 -- -- 95
2019-04-20 01:00:00 7.4 5 Norte 9 Norte 5.6 -- -- 95
2019-04-20 00:00:00 7.4 4 Norte 8 Norte 2.8 -- -- 95
2019-04-19 23:00:00 7.2 4 Norte 9 Nordeste 1.4 -- -- 95
2019-04-19 22:00:00 7.2 4 Nordeste 11 Nordeste 2.2 -- -- 95
2019-04-19 21:00:00 7.4 5 Nordeste 10 Nordeste 3.8 -- -- 94
2019-04-19 20:00:00 7.6 5 Nordeste 12 Nordeste 4.4 -- -- 94
2019-04-19 19:00:00 7.8 7 Nordeste 14 Nordeste 3.8 -- -- 94
2019-04-19 18:00:00 7.8 10 Nordeste 20 Nordeste 3.4 -- -- 93
2019-04-19 17:00:00 7.8 12 Nordeste 24 Nordeste 3 -- -- 92
2019-04-19 16:00:00 8.7 12 Nordeste 24 Nordeste 3.4 -- -- 92
2019-04-19 15:00:00 8.8 14 Nordeste 26 Nordeste 2.8 -- -- 91
2019-04-19 14:00:00 9.8 8 Nordeste 15 Nordeste 2 -- -- 90
2019-04-19 13:00:00 10.9 4 Nordeste 9 Nordeste 0 -- -- 82
2019-04-19 12:00:00 9.5 5 Este 10 Sur 0.2 -- -- 91
2019-04-19 11:00:00 9 3 Este 13 Nordeste 0 -- -- 94
2019-04-19 10:00:00 8.3 7 Este 11 Nordeste 0.2 -- -- 95
2019-04-19 09:00:00 7.9 5 Nordeste 9 Nordeste 1 -- -- 95
2019-04-19 08:00:00 7.6 4 Nordeste 7 Nordeste 0 -- -- 95
2019-04-19 07:00:00 7.2 4 Nordeste 11 Nordeste 0 -- -- 94
2019-04-19 06:00:00 7.4 0 Calma 7 Sudeste 0.2 -- -- 94
2019-04-19 05:00:00 7.2 4 Este 10 Este 0 -- -- 94
2019-04-19 04:00:00 7.3 6 Nordeste 10 Este 0 -- -- 94
2019-04-19 03:00:00 7.8 5 Nordeste 8 Nordeste 0 -- -- 93
2019-04-19 02:00:00 7.6 3 Este 7 Este 0 -- -- 93
2019-04-19 01:00:00 8 0 Calma 4 Sur 0 -- -- 92
2019-04-19 00:00:00 7.6 0 Calma 12 Sudeste 0 -- -- 92
2019-04-18 23:00:00 8.3 4 Este 17 Sudeste 0 -- -- 90
2019-04-18 22:00:00 8.8 7 Sudeste 15 Este 0 -- -- 90
2019-04-18 21:00:00 9.5 4 Este 19 Sudeste 0.2 -- -- 88
2019-04-18 20:00:00 9.9 10 Sudeste 24 Este 0 -- -- 84
2019-04-18 19:00:00 10.2 8 Este 22 Sudeste 0 -- -- 83
2019-04-18 18:00:00 10.9 14 Sudeste 22 Este 0 -- -- 77
2019-04-18 17:00:00 10.4 8 Sudeste 15 Este 0 -- -- 79
2019-04-18 16:00:00 9.8 8 Sudeste 23 Nordeste 0 -- -- 87
2019-04-18 15:00:00 9.8 15 Nordeste 21 Nordeste 0.8 -- -- 92
2019-04-18 14:00:00 9.5 4 Norte 16 Norte 1.6 -- -- 91
2019-04-18 13:00:00 9.5 8 Noroeste 14 Noroeste 2 -- -- 92
2019-04-18 12:00:00 8.4 5 Sur 12 Sur 3.4 -- -- 90
2019-04-18 11:00:00 9 0 Calma 13 Sudoeste 3 -- -- 89
2019-04-18 10:00:00 9.2 0 Calma 16 Sudeste 1.8 -- -- 90
2019-04-18 09:00:00 9 5 Sudeste 22 Nordeste 1.4 -- -- 93
2019-04-18 08:00:00 8.9 13 Nordeste 25 Nordeste 2.4 -- -- 93
2019-04-18 07:00:00 8.9 12 Nordeste 24 Este 3.4 -- -- 92
2019-04-18 06:00:00 9.1 13 Nordeste 20 Este 3.8 -- -- 90
2019-04-18 05:00:00 9.6 5 Este 24 Nordeste 1 -- -- 88
2019-04-18 04:00:00 10 6 Este 24 Sudeste 0 -- -- 85
2019-04-18 03:00:00 10.3 10 Este 27 Este 0 -- -- 85
2019-04-18 02:00:00 10.5 8 Este 27 Nordeste 0.2 -- -- 85
2019-04-18 01:00:00 11.3 11 Este 36 Este 0 -- -- 79
2019-04-18 00:00:00 11.7 12 Este 36 Este 0 -- -- 76
2019-04-17 23:00:00 12.3 17 Este 41 Nordeste 0 -- -- 74
2019-04-17 22:00:00 14.3 16 Este 36 Sudeste 0 -- -- 65
2019-04-17 21:00:00 16.3 17 Sudeste 42 Sudeste 0 -- -- 48
2019-04-17 20:00:00 17.3 15 Este 41 Sudeste 0 -- -- 49
2019-04-17 19:00:00 18.5 20 Este 55 Sudeste 0 -- -- 47
2019-04-17 18:00:00 19.5 21 Este 48 Sudeste 0 -- -- 45
2019-04-17 17:00:00 21.1 22 Este 45 Sudeste 0 -- -- 42
2019-04-17 16:00:00 20.5 18 Este 44 Este 0 -- -- 43
2019-04-17 15:00:00 20.2 18 Este 44 Nordeste 0 -- -- 44
2019-04-17 14:00:00 19.3 19 Este 48 Este 0 -- -- 46
2019-04-17 13:00:00 17.6 19 Este 42 Nordeste 0 -- -- 51
2019-04-17 12:00:00 16.3 21 Este 48 Este 0 -- -- 55
2019-04-17 11:00:00 14.2 23 Este 55 Sudeste 0 -- -- 63
2019-04-17 10:00:00 12.5 23 Este 51 Este 0 -- -- 69
2019-04-17 09:00:00 11 18 Este 36 Este 0 -- -- 76
2019-04-17 08:00:00 9.6 13 Este 33 Este 0 -- -- 83
2019-04-17 07:00:00 9.7 12 Este 30 Nordeste 0 -- -- 83
2019-04-17 06:00:00 9.2 13 Este 33 Este 0 -- -- 84
2019-04-17 05:00:00 9.2 12 Este 33 Este 0 -- -- 83
2019-04-17 04:00:00 9.5 14 Este 34 Este 0 -- -- 79
2019-04-17 03:00:00 10 14 Este 32 Este 0 -- -- 76
2019-04-17 02:00:00 10.3 18 Este 34 Este 0 -- -- 74
2019-04-17 01:00:00 11.9 13 Este 34 Nordeste 0 -- -- 73
2019-04-17 00:00:00 12.8 17 Este 44 Este 0 -- -- 69
2019-04-16 23:00:00 14.2 15 Este 30 Sudeste 0 -- -- 65
2019-04-16 22:00:00 15.3 11 Este 34 Este 0 -- -- 60
2019-04-16 21:00:00 18.9 13 Este 37 Este 0 -- -- 41
2019-04-16 20:00:00 21.4 12 Este 30 Nordeste 0 -- -- 27
2019-04-16 19:00:00 22.8 15 Este 29 Nordeste 0 -- -- 24
2019-04-16 18:00:00 22.8 13 Este 26 Sudeste 0 -- -- 26
2019-04-16 17:00:00 24 6 Este 25 Este 0 -- -- 23
2019-04-16 16:00:00 22.9 7 Sudeste 25 Sudeste 0 -- -- 25
2019-04-16 15:00:00 21.8 7 Este 24 Este 0 -- -- 28
2019-04-16 14:00:00 20.3 8 Este 26 Sudeste 0 -- -- 29
2019-04-16 13:00:00 19.6 5 Este 20 Sudeste 0 -- -- 35
2019-04-16 12:00:00 17.8 8 Este 18 Sudeste 0 -- -- 41
2019-04-16 11:00:00 16.9 9 Nordeste 16 Nordeste 0 -- -- 46
2019-04-16 10:00:00 15.6 0 Calma 5 Sudoeste 0 -- -- 55
2019-04-16 09:00:00 9.9 2 Sur 6 Sudoeste 0 -- -- 76
2019-04-16 08:00:00 7.1 3 Oeste 13 Oeste 0 -- -- 87
2019-04-16 07:00:00 7.1 8 Oeste 15 Oeste 0 -- -- 85
2019-04-16 06:00:00 9 12 Oeste 19 Oeste 0 -- -- 78
2019-04-16 05:00:00 9.1 10 Oeste 16 Sudoeste 0 -- -- 78
2019-04-16 04:00:00 9.5 8 Oeste 23 Oeste 0 -- -- 70
2019-04-16 03:00:00 11.4 11 Oeste 27 Oeste 0 -- -- 61
2019-04-16 02:00:00 12.9 17 Oeste 33 Oeste 0 -- -- 54
2019-04-16 01:00:00 13.8 11 Oeste 20 Oeste 0 -- -- 64
2019-04-16 00:00:00 14.4 10 Noroeste 29 Noroeste 0 -- -- 60
2019-04-15 23:00:00 15.2 17 Noroeste 41 Noroeste 0 -- -- 56
2019-04-15 22:00:00 19 24 Oeste 38 Sudoeste 0 -- -- 39
2019-04-15 21:00:00 19.7 23 Sudoeste 50 Sudoeste 0 -- -- 26
2019-04-15 20:00:00 22.2 36 Sudoeste 51 Sudoeste 0 -- -- 25
2019-04-15 19:00:00 24.2 27 Sudoeste 49 Sudoeste 0 -- -- 24
2019-04-15 18:00:00 25.3 24 Sudoeste 52 Sudoeste 0 -- -- 22
2019-04-15 17:00:00 25.4 30 Sudoeste 52 Sudoeste 0 -- -- 21
2019-04-15 16:00:00 25.7 26 Sudoeste 47 Sudoeste 0 -- -- 24
2019-04-15 15:00:00 25.3 23 Sudoeste 38 Sur 0 -- -- 30
2019-04-15 14:00:00 23.5 14 Sudoeste 35 Sudoeste 0 -- -- 37
2019-04-15 13:00:00 22.6 9 Sudeste 21 Sudeste 0 -- -- 42
2019-04-15 12:00:00 20.2 12 Este 26 Este 0 -- -- 48
2019-04-15 11:00:00 18.7 10 Este 20 Nordeste 0 -- -- 60
2019-04-15 10:00:00 14.1 8 Nordeste 12 Nordeste 0 -- -- 72
2019-04-15 09:00:00 10.5 6 Nordeste 10 Este 0 -- -- 82
2019-04-15 08:00:00 9.4 5 Nordeste 9 Este 0 -- -- 84
2019-04-15 07:00:00 9.9 2 Nordeste 6 Nordeste 0 -- -- 84
2019-04-15 06:00:00 10.8 0 Calma 9 Nordeste 0 -- -- 81
2019-04-15 05:00:00 11.4 0 Calma 6 Sudoeste 0 -- -- 79
2019-04-15 04:00:00 12 2 Sur 6 Sudeste 0 -- -- 76
2019-04-15 03:00:00 12.5 4 Sudoeste 8 Sudoeste 0 -- -- 73
2019-04-15 02:00:00 13.5 4 Sudoeste 9 Sudoeste 0 -- -- 70
2019-04-15 01:00:00 13 5 Sudoeste 12 Sudoeste 0 -- -- 71
2019-04-15 00:00:00 13.3 5 Sudoeste 9 Sudoeste 0 -- -- 67
2019-04-14 23:00:00 14.5 3 Sudoeste 11 Sudoeste 0 -- -- 63
2019-04-14 22:00:00 16.3 6 Sudoeste 15 Oeste 0 -- -- 57
2019-04-14 21:00:00 18.6 10 Oeste 26 Oeste 0 -- -- 49
2019-04-14 20:00:00 21.4 18 Oeste 30 Oeste 0 -- -- 41
2019-04-14 19:00:00 22.9 19 Oeste 32 Oeste 0 -- -- 38
2019-04-14 18:00:00 23.5 20 Oeste 33 Sudoeste 0 -- -- 37
2019-04-14 17:00:00 23.6 19 Sudoeste 35 Oeste 0 -- -- 37
2019-04-14 16:00:00 23.5 16 Oeste 35 Oeste 0 -- -- 35
2019-04-14 15:00:00 22.4 16 Sudoeste 30 Oeste 0 -- -- 37
2019-04-14 14:00:00 21.2 13 Sudoeste 26 Sudoeste 0 -- -- 39
2019-04-14 13:00:00 20.1 11 Sudoeste 23 Oeste 0 -- -- 40
2019-04-14 12:00:00 18.7 12 Oeste 22 Sudoeste 0 -- -- 40
2019-04-14 11:00:00 16.6 13 Sudoeste 22 Oeste 0 -- -- 48
2019-04-14 10:00:00 14.8 12 Oeste 19 Oeste 0 -- -- 52
2019-04-14 09:00:00 10.3 8 Oeste 12 Oeste 0 -- -- 62
2019-04-14 08:00:00 8.8 9 Oeste 13 Sudoeste 0 -- -- 65
2019-04-14 07:00:00 8.6 5 Sudoeste 16 Sudoeste 0 -- -- 63
2019-04-14 06:00:00 7.8 7 Oeste 13 Sudoeste 0 -- -- 67
2019-04-14 05:00:00 8.9 9 Oeste 17 Oeste 0 -- -- 61
2019-04-14 04:00:00 9.4 6 Sudoeste 15 Sudoeste 0 -- -- 61
2019-04-14 03:00:00 9.1 6 Sudoeste 12 Sudoeste 0 -- -- 63
2019-04-14 02:00:00 9.3 6 Sudoeste 14 Sudoeste 0 -- -- 62
2019-04-14 01:00:00 10.1 7 Sudoeste 16 Sudoeste 0 -- -- 60
2019-04-14 00:00:00 12.1 11 Oeste 17 Sudoeste 0 -- -- 53
2019-04-13 23:00:00 12.8 6 Sudoeste 10 Sudoeste 0 -- -- 45
2019-04-13 22:00:00 14.4 3 Oeste 10 Noroeste 0 -- -- 39
2019-04-13 21:00:00 16.1 5 Oeste 17 Oeste 0 -- -- 32
2019-04-13 20:00:00 19.8 13 Oeste 30 Noroeste 0 -- -- 21
2019-04-13 19:00:00 21.7 13 Oeste 23 Oeste 0 -- -- 16
2019-04-13 18:00:00 21.6 14 Oeste 31 Sudoeste 0 -- -- 18
2019-04-13 17:00:00 21.8 10 Oeste 35 Sudoeste 0 -- -- 20
2019-04-13 16:00:00 20.6 15 Sudoeste 30 Sudoeste 0 -- -- 21
2019-04-13 15:00:00 20.7 13 Oeste 29 Oeste 0 -- -- 19
2019-04-13 14:00:00 18.6 18 Oeste 30 Oeste 0 -- -- 27
2019-04-13 13:00:00 17.7 17 Oeste 27 Oeste 0 -- -- 32
2019-04-13 12:00:00 15.6 15 Oeste 23 Oeste 0 -- -- 35
2019-04-13 11:00:00 12.5 17 Oeste 23 Oeste 0 -- -- 45
2019-04-13 10:00:00 10.6 11 Oeste 17 Oeste 0 -- -- 50
2019-04-13 09:00:00 6.7 5 Sudoeste 8 Sudoeste 0 -- -- 64
2019-04-13 08:00:00 3.4 4 Sudoeste 8 Sudoeste 0 -- -- 71
2019-04-13 07:00:00 2.6 3 Sudoeste 8 Sudoeste 0 -- -- 76
2019-04-13 06:00:00 3.3 5 Sudoeste 11 Sudoeste 0 -- -- 73
2019-04-13 05:00:00 4.4 8 Sudoeste 12 Sudoeste 0 -- -- 67
2019-04-13 04:00:00 4.9 4 Sudoeste 9 Sudoeste 0 -- -- 66
2019-04-13 03:00:00 6.5 4 Sudoeste 12 Oeste 0 -- -- 56
2019-04-13 02:00:00 6.2 3 Sudoeste 7 Oeste 0 -- -- 61
2019-04-13 01:00:00 6.9 3 Sudoeste 7 Sudoeste 0 -- -- 59
2019-04-13 00:00:00 8 5 Sudoeste 8 Sudoeste 0 -- -- 55
2019-04-12 23:00:00 10.2 3 Oeste 8 Noroeste 0 -- -- 45
2019-04-12 22:00:00 12.4 5 Noroeste 10 Noroeste 0 -- -- 39
2019-04-12 21:00:00 14 5 Noroeste 17 Noroeste 0 -- -- 33
2019-04-12 20:00:00 17.5 11 Noroeste 30 Oeste 0 -- -- 26
2019-04-12 19:00:00 19.2 13 Noroeste 31 Noroeste 0 -- -- 24
2019-04-12 18:00:00 19.5 17 Noroeste 32 Oeste 0 -- -- 25
2019-04-12 17:00:00 19.2 18 Noroeste 35 Oeste 0 -- -- 26
2019-04-12 16:00:00 17.9 21 Oeste 35 Oeste 0 -- -- 28
2019-04-12 15:00:00 16.8 21 Oeste 39 Oeste 0 -- -- 32
2019-04-12 14:00:00 17.3 19 Noroeste 37 Noroeste 0 -- -- 34
2019-04-12 13:00:00 15.8 13 Oeste 30 Oeste 0 -- -- 40
2019-04-12 12:00:00 12.4 17 Oeste 27 Oeste 0 -- -- 48
2019-04-12 11:00:00 10.5 13 Oeste 20 Oeste 0 -- -- 53
2019-04-12 10:00:00 7.7 13 Oeste 18 Oeste 0 -- -- 65
2019-04-12 09:00:00 4.5 11 Oeste 16 Oeste 0 -- -- 75
2019-04-12 08:00:00 1.7 7 Oeste 12 Oeste 0 -- -- 85
2019-04-12 07:00:00 2 6 Oeste 9 Oeste 0 -- -- 82
2019-04-12 06:00:00 2.5 4 Sudoeste 7 Oeste 0 -- -- 80
2019-04-12 05:00:00 2.2 0 Calma 5 Sudoeste 0 -- -- 81
2019-04-12 04:00:00 3.4 2 Sudoeste 10 Sudoeste 0 -- -- 76
2019-04-12 03:00:00 6.1 4 Noroeste 14 Norte 0 -- -- 64
2019-04-12 02:00:00 6.9 6 Noroeste 12 Noroeste 0 -- -- 60
2019-04-12 01:00:00 7.9 8 Norte 17 Norte 0 -- -- 56
2019-04-12 00:00:00 8.9 10 Noroeste 19 Norte 0 -- -- 51
2019-04-11 23:00:00 9.9 8 Noroeste 18 Noroeste 0 -- -- 48
2019-04-11 22:00:00 11 7 Noroeste 19 Oeste 0 -- -- 43
2019-04-11 21:00:00 12.5 9 Noroeste 25 Noroeste 0 -- -- 36
2019-04-11 20:00:00 16.3 14 Noroeste 33 Noroeste 0 -- -- 28
2019-04-11 19:00:00 17.2 14 Noroeste 36 Noroeste 0 -- -- 29
2019-04-11 18:00:00 18 19 Noroeste 32 Oeste 0 -- -- 26
2019-04-11 17:00:00 17.3 18 Noroeste 39 Oeste 0 -- -- 30
2019-04-11 16:00:00 18.1 19 Noroeste 37 Oeste 0 -- -- 33
2019-04-11 15:00:00 16.8 21 Noroeste 35 Oeste 0 -- -- 32
2019-04-11 14:00:00 15.6 18 Noroeste 34 Noroeste 0 -- -- 39
2019-04-11 13:00:00 15.5 18 Noroeste 31 Norte 0 -- -- 43
2019-04-11 12:00:00 13.6 14 Noroeste 29 Noroeste 0 -- -- 50
2019-04-11 11:00:00 10.6 15 Noroeste 23 Oeste 0 -- -- 66
2019-04-11 10:00:00 6.8 14 Oeste 19 Oeste 0 -- -- 78
2019-04-11 09:00:00 4.1 12 Oeste 17 Oeste 0 -- -- 89
2019-04-11 08:00:00 1.7 8 Oeste 12 Oeste 0 -- -- 93
2019-04-11 07:00:00 1.9 7 Oeste 10 Oeste 0 -- -- 93
2019-04-11 06:00:00 2.2 6 Oeste 9 Oeste 0.2 -- -- 92
2019-04-11 05:00:00 3 9 Oeste 10 Oeste 0 -- -- 91
2019-04-11 04:00:00 3.4 6 Oeste 12 Oeste 0 -- -- 91
2019-04-11 03:00:00 4.3 9 Oeste 16 Oeste 0 -- -- 89
2019-04-11 02:00:00 4.9 12 Oeste 16 Oeste 0 -- -- 88
2019-04-11 01:00:00 5.6 13 Oeste 19 Oeste 0 -- -- 86
2019-04-11 00:00:00 5.5 7 Oeste 17 Sudoeste 0 -- -- 85
2019-04-10 23:00:00 6.3 11 Oeste 17 Oeste 0 -- -- 84
2019-04-10 22:00:00 6.6 7 Oeste 13 Oeste 0 -- -- 84
2019-04-10 21:00:00 7 8 Oeste 15 Oeste 0 -- -- 84
2019-04-10 20:00:00 8.3 11 Oeste 20 Noroeste 0.4 -- -- 79
2019-04-10 19:00:00 8.3 12 Norte 37 Norte 0.4 -- -- 77
2019-04-10 18:00:00 11.7 13 Oeste 58 Noroeste 0 -- -- 56
2019-04-10 17:00:00 13.6 32 Oeste 48 Oeste 0 -- -- 44
2019-04-10 16:00:00 14 27 Oeste 40 Oeste 0 -- -- 38
2019-04-10 15:00:00 13.6 28 Oeste 42 Oeste 0 -- -- 39
2019-04-10 14:00:00 12.4 21 Oeste 35 Oeste 0 -- -- 51
2019-04-10 13:00:00 11.6 21 Oeste 33 Sudoeste 0 -- -- 56
2019-04-10 12:00:00 9.9 20 Oeste 33 Sudoeste 0 -- -- 66
2019-04-10 11:00:00 9 23 Oeste 33 Oeste 0 -- -- 73
2019-04-10 10:00:00 7.6 19 Sudoeste 30 Oeste 0 -- -- 84
2019-04-10 09:00:00 5.2 19 Oeste 29 Oeste 0 -- -- 92
2019-04-10 08:00:00 4.4 17 Oeste 27 Sudoeste 0 -- -- 92
2019-04-10 07:00:00 4.9 14 Oeste 23 Oeste 0 -- -- 91
2019-04-10 06:00:00 5.2 14 Oeste 25 Oeste 0 -- -- 90
2019-04-10 05:00:00 5.5 14 Oeste 28 Sudoeste 0 -- -- 90
2019-04-10 04:00:00 6.3 17 Oeste 27 Sudoeste 0.2 -- -- 87
2019-04-10 03:00:00 6.7 15 Oeste 29 Oeste 0.8 -- -- 88
2019-04-10 02:00:00 6.9 14 Oeste 32 Sudoeste 0.4 -- -- 86
2019-04-10 01:00:00 7.5 20 Sudoeste 36 Sudoeste 0 -- -- 81
2019-04-10 00:00:00 7 12 Oeste 23 Sudoeste 0 -- -- 84
2019-04-09 23:00:00 7.4 13 Oeste 25 Sudoeste 0 -- -- 84
2019-04-09 22:00:00 8 11 Oeste 22 Oeste 0.2 -- -- 78
2019-04-09 21:00:00 8.1 13 Sudoeste 22 Sudoeste 0 -- -- 77
2019-04-09 20:00:00 9.1 16 Noroeste 53 Oeste 0.6 -- -- 73
2019-04-09 19:00:00 11.9 29 Sudoeste 64 Sudoeste 0 -- -- 59
2019-04-09 18:00:00 12.8 31 Sudoeste 51 Sudoeste 0 -- -- 60
2019-04-09 17:00:00 10.9 23 Sudoeste 47 Oeste 0 -- -- 73
2019-04-09 16:00:00 11 32 Sudoeste 57 Sudoeste 0 -- -- 62
2019-04-09 15:00:00 12.3 30 Sudoeste 53 Sudoeste 0 -- -- 57
2019-04-09 14:00:00 12.4 32 Sudoeste 51 Sudoeste 0 -- -- 58
2019-04-09 13:00:00 11.5 25 Sudoeste 49 Oeste 0 -- -- 65
2019-04-09 12:00:00 10.4 31 Oeste 50 Oeste 0 -- -- 63
2019-04-09 11:00:00 9.7 28 Oeste 46 Oeste 0 -- -- 71
2019-04-09 10:00:00 8.2 23 Sudoeste 38 Sudoeste 0 -- -- 82
2019-04-09 09:00:00 6.4 21 Sudoeste 38 Sudoeste 0 -- -- 88
2019-04-09 08:00:00 4.6 11 Oeste 30 Sudoeste 0 -- -- 91
2019-04-09 07:00:00 4.9 17 Oeste 31 Sudoeste 0 -- -- 89
2019-04-09 06:00:00 5.6 19 Oeste 33 Sudoeste 0 -- -- 88
2019-04-09 05:00:00 6.7 18 Sudoeste 33 Sudoeste 0 -- -- 85
2019-04-09 04:00:00 6.9 13 Oeste 24 Sudoeste 0 -- -- 84
2019-04-09 03:00:00 7.3 14 Oeste 26 Oeste 0 -- -- 78
2019-04-09 02:00:00 7.7 13 Oeste 26 Sudoeste 0 -- -- 75
2019-04-09 01:00:00 8.4 12 Sudoeste 26 Sudoeste 0 -- -- 73
2019-04-09 00:00:00 8 10 Sudoeste 21 Sudoeste 0 -- -- 80
2019-04-08 23:00:00 8.8 7 Sudoeste 18 Sudoeste 0 -- -- 76
2019-04-08 22:00:00 10.2 11 Sudoeste 22 Oeste 0 -- -- 73
2019-04-08 21:00:00 11.5 11 Sudoeste 29 Sudoeste 0 -- -- 70
2019-04-08 20:00:00 14.1 18 Sudoeste 41 Oeste 0 -- -- 60
2019-04-08 19:00:00 14.2 20 Sudoeste 38 Sudoeste 0 -- -- 68
2019-04-08 18:00:00 13.4 30 Sudoeste 44 Sudoeste 0.6 -- -- 70
2019-04-08 17:00:00 11.6 34 Sudoeste 54 Sudoeste 0.6 -- -- 74
2019-04-08 16:00:00 15.3 25 Sudoeste 42 Sudoeste 0 -- -- 62
2019-04-08 15:00:00 14.5 24 Sudoeste 46 Oeste 0 -- -- 63
2019-04-08 14:00:00 14.9 27 Oeste 46 Sudoeste 0 -- -- 62
2019-04-08 13:00:00 14 27 Sudoeste 44 Oeste 0 -- -- 69
2019-04-08 12:00:00 12.7 24 Oeste 37 Sudoeste 0 -- -- 74
2019-04-08 11:00:00 10.5 28 Oeste 41 Sudoeste 0 -- -- 83
2019-04-08 10:00:00 9.9 19 Sudoeste 33 Sudoeste 0 -- -- 88
2019-04-08 09:00:00 9.5 18 Sudoeste 32 Sudoeste 0 -- -- 92
2019-04-08 08:00:00 8.9 16 Sudoeste 27 Sudoeste 1 -- -- 92
2019-04-08 07:00:00 9 10 Sudoeste 30 Sudoeste 1 -- -- 91
2019-04-08 06:00:00 9.2 15 Sudoeste 25 Sudoeste 0 -- -- 88
2019-04-08 05:00:00 9 15 Sudoeste 35 Sudoeste 0 -- -- 88
2019-04-08 04:00:00 9.5 21 Sudoeste 35 Sudoeste 0 -- -- 89
2019-04-08 03:00:00 9 15 Sudoeste 21 Sudoeste 0 -- -- 92
2019-04-08 02:00:00 7.7 0 Calma 7 Este 0.8 -- -- 89
2019-04-08 01:00:00 7.8 4 Sudeste 9 Sudeste 0 -- -- 88
2019-04-08 00:00:00 7.8 3 Sudeste 5 Sudeste 0 -- -- 88
2019-04-07 23:00:00 7.8 0 Calma 17 Oeste 0 -- -- 87
2019-04-07 22:00:00 7.9 12 Oeste 27 Sudoeste 0 -- -- 85
2019-04-07 21:00:00 9.7 15 Sudoeste 29 Sudoeste 0 -- -- 70
2019-04-07 20:00:00 10.4 19 Oeste 40 Oeste 0 -- -- 61
2019-04-07 19:00:00 11.3 26 Oeste 46 Oeste 0 -- -- 55
2019-04-07 18:00:00 11.9 28 Oeste 47 Oeste 0 -- -- 55
2019-04-07 17:00:00 12.9 27 Oeste 46 Sudoeste 0 -- -- 53
2019-04-07 16:00:00 11.4 29 Oeste 49 Oeste 0 -- -- 56
2019-04-07 15:00:00 11.1 29 Oeste 44 Oeste 0 -- -- 58
2019-04-07 14:00:00 11.4 26 Oeste 38 Oeste 0 -- -- 58
2019-04-07 13:00:00 11.9 21 Oeste 39 Oeste 0 -- -- 55
2019-04-07 12:00:00 9.6 25 Oeste 44 Oeste 0.2 -- -- 65
2019-04-07 11:00:00 6.5 20 Oeste 35 Oeste 0 -- -- 76
2019-04-07 10:00:00 6.5 26 Oeste 39 Oeste 0 -- -- 78
2019-04-07 09:00:00 5 20 Oeste 32 Oeste 0 -- -- 91
2019-04-07 08:00:00 4.7 18 Oeste 29 Oeste 0 -- -- 92
2019-04-07 07:00:00 4.3 19 Oeste 35 Sudoeste 0 -- -- 90
2019-04-07 06:00:00 4.6 21 Oeste 34 Sudoeste 0.2 -- -- 90
2019-04-07 05:00:00 4.6 17 Oeste 36 Sudoeste 0.4 -- -- 90
2019-04-07 04:00:00 4.7 22 Sudoeste 49 Sudoeste 0 -- -- 88
2019-04-07 03:00:00 4.7 21 Sudoeste 35 Sudoeste 0 -- -- 85
2019-04-07 02:00:00 4.4 21 Sudoeste 36 Oeste 0 -- -- 84
2019-04-07 01:00:00 5.1 20 Sudoeste 37 Sudoeste 0 -- -- 80
2019-04-07 00:00:00 5.3 21 Sudoeste 33 Sudoeste 0 -- -- 79
2019-04-06 23:00:00 5.4 20 Sudoeste 40 Sudoeste 0 -- -- 80
2019-04-06 22:00:00 5.6 23 Sudoeste 37 Sudoeste 0 -- -- 79
2019-04-06 21:00:00 5.9 26 Sudoeste 42 Sudoeste 0 -- -- 76
2019-04-06 20:00:00 6.9 24 Sudoeste 46 Sudoeste 0 -- -- 72
2019-04-06 19:00:00 7.4 30 Oeste 53 Oeste 0 -- -- 71
2019-04-06 18:00:00 8.4 25 Oeste 53 Oeste 0.2 -- -- 69
2019-04-06 17:00:00 9.6 27 Oeste 59 Oeste 0 -- -- 60
2019-04-06 16:00:00 9.5 30 Sudoeste 50 Oeste 0 -- -- 69
2019-04-06 15:00:00 8.8 28 Sudoeste 61 Sudoeste 0 -- -- 75
2019-04-06 14:00:00 6 28 Sudoeste 58 Sudoeste 1.8 -- -- 94
2019-04-06 13:00:00 6.2 24 Oeste 41 Oeste 0.4 -- -- 82
2019-04-06 12:00:00 5.7 23 Sudoeste 44 Sudoeste 0.4 -- -- 84
2019-04-06 11:00:00 5.6 20 Sudoeste 42 Sudoeste 0 -- -- 86
2019-04-06 10:00:00 5.6 23 Sudoeste 39 Sudoeste 0 -- -- 82
2019-04-06 09:00:00 4.7 20 Sudoeste 39 Sudoeste 0 -- -- 85
2019-04-06 08:00:00 4 18 Sudoeste 36 Sudoeste 0 -- -- 87
2019-04-06 07:00:00 3.5 18 Sudoeste 35 Sudoeste 0 -- -- 88
2019-04-06 06:00:00 3.5 19 Sudoeste 38 Sudoeste 0 -- -- 88
2019-04-06 05:00:00 4.2 22 Sudoeste 33 Oeste 0 -- -- 87
2019-04-06 04:00:00 4.1 26 Sudoeste 43 Sudoeste 0 -- -- 86
2019-04-06 03:00:00 4.3 17 Sudoeste 33 Sudoeste 0 -- -- 87
2019-04-06 02:00:00 3.9 20 Sudoeste 34 Sudoeste 0 -- -- 86
2019-04-06 01:00:00 4.3 16 Sudoeste 42 Sudoeste 0 -- -- 83
2019-04-06 00:00:00 4.8 15 Sudoeste 28 Sudoeste 0 -- -- 73
2019-04-05 23:00:00 4.5 17 Sudoeste 32 Oeste 0 -- -- 73
2019-04-05 22:00:00 4.7 16 Oeste 28 Oeste 0 -- -- 78
2019-04-05 21:00:00 5.5 18 Oeste 47 Oeste 0 -- -- 74
2019-04-05 20:00:00 6.4 40 Oeste 58 Oeste 0.2 -- -- 61
2019-04-05 19:00:00 8 18 Sudoeste 51 Sudoeste 0 -- -- 77
2019-04-05 18:00:00 9 21 Sudoeste 37 Sudoeste 0.2 -- -- 67
2019-04-05 17:00:00 5.4 15 Sudoeste 32 Sudoeste 1 -- -- 83
2019-04-05 16:00:00 4.6 22 Oeste 58 Sudoeste 1 -- -- 89
2019-04-05 15:00:00 8 28 Sudoeste 50 Sudoeste 0 -- -- 70
2019-04-05 14:00:00 8.6 17 Sudoeste 39 Sudoeste 0 -- -- 71
2019-04-05 13:00:00 7.6 13 Sur 30 Sur 0.4 -- -- 78
2019-04-05 12:00:00 6.7 14 Sur 37 Sudoeste 0.6 -- -- 82
2019-04-05 11:00:00 8.1 21 Sudoeste 37 Sudoeste 0 -- -- 69
2019-04-05 10:00:00 7.5 19 Sudoeste 31 Sudoeste 0 -- -- 67
2019-04-05 09:00:00 6.9 9 Sur 23 Sudoeste 0 -- -- 71
2019-04-05 08:00:00 6.5 8 Sur 24 Sur 0 -- -- 72
2019-04-05 07:00:00 6.6 13 Sudoeste 25 Sur 0 -- -- 69
2019-04-05 06:00:00 6.7 14 Sudoeste 29 Sur 0 -- -- 68
2019-04-05 05:00:00 6.9 14 Sur 30 Sur 0 -- -- 65
2019-04-05 04:00:00 7.1 14 Sudoeste 29 Sur 0 -- -- 57
2019-04-05 03:00:00 7.2 11 Sur 22 Sur 0 -- -- 54
2019-04-05 02:00:00 8.3 14 Sudoeste 26 Sudoeste 0 -- -- 51
2019-04-05 01:00:00 8.3 19 Sudoeste 28 Sudoeste 0 -- -- 51
2019-04-05 00:00:00 8.7 6 Sur 11 Sur 0 -- -- 47
2019-04-04 23:00:00 9 6 Sudeste 13 Sudeste 0 -- -- 45
2019-04-04 22:00:00 10.1 6 Sudeste 12 Sudeste 0 -- -- 36
2019-04-04 21:00:00 11.6 3 Noroeste 12 Oeste 0 -- -- 32
2019-04-04 20:00:00 14.4 9 Oeste 17 Oeste 0 -- -- 27
2019-04-04 19:00:00 15.1 9 Oeste 23 Oeste 0 -- -- 23
2019-04-04 18:00:00 15.3 13 Oeste 27 Oeste 0 -- -- 23
2019-04-04 17:00:00 15 13 Oeste 25 Oeste 0 -- -- 22
2019-04-04 16:00:00 15.6 9 Oeste 24 Noroeste 0 -- -- 25
2019-04-04 15:00:00 14.2 15 Oeste 28 Norte 0 -- -- 27
2019-04-04 14:00:00 14 10 Noroeste 21 Oeste 0 -- -- 27
2019-04-04 13:00:00 12.9 7 Oeste 18 Oeste 0 -- -- 28
2019-04-04 12:00:00 13.9 6 Noroeste 13 Noroeste 0 -- -- 27
2019-04-04 11:00:00 11.7 4 Norte 14 Nordeste 0 -- -- 33
2019-04-04 10:00:00 10.5 4 Norte 9 Norte 0 -- -- 39
2019-04-04 09:00:00 2.6 0 Calma 0 Calma 0 -- -- 71
2019-04-04 08:00:00 0.5 0 Calma 2 Sudoeste 0 -- -- 80
2019-04-04 07:00:00 1.9 0 Calma 9 Noroeste 0 -- -- 70
2019-04-04 06:00:00 3.6 4 Norte 8 Norte 0 -- -- 63
2019-04-04 05:00:00 4.3 0 Calma 8 Norte 0 -- -- 59
2019-04-04 04:00:00 5.2 3 Norte 12 Norte 0 -- -- 57
2019-04-04 03:00:00 6.4 6 Norte 16 Norte 0 -- -- 51
2019-04-04 02:00:00 8.1 9 Noroeste 14 Noroeste 0 -- -- 45
2019-04-04 01:00:00 8.3 5 Oeste 10 Oeste 0 -- -- 50
2019-04-04 00:00:00 9.7 7 Oeste 12 Oeste 0 -- -- 42
2019-04-03 23:00:00 10.4 6 Oeste 17 Oeste 0 -- -- 43
2019-04-03 22:00:00 10.7 9 Noroeste 20 Noroeste 0 -- -- 42
2019-04-03 21:00:00 12.2 13 Noroeste 45 Oeste 0 -- -- 41
2019-04-03 20:00:00 15.3 26 Sudoeste 50 Oeste 0 -- -- 32
2019-04-03 19:00:00 17 33 Oeste 53 Oeste 0 -- -- 26
2019-04-03 18:00:00 18.2 32 Oeste 54 Oeste 0 -- -- 26
2019-04-03 17:00:00 18.3 34 Oeste 57 Oeste 0 -- -- 25
2019-04-03 16:00:00 18.1 36 Oeste 56 Oeste 0 -- -- 24
2019-04-03 15:00:00 17.4 34 Oeste 52 Oeste 0 -- -- 35
2019-04-03 14:00:00 17.3 31 Oeste 52 Oeste 0 -- -- 39
2019-04-03 13:00:00 16.4 28 Oeste 49 Oeste 0 -- -- 41
2019-04-03 12:00:00 15.5 22 Sudoeste 39 Sudoeste 0 -- -- 48
2019-04-03 11:00:00 13.9 21 Sudoeste 32 Sudoeste 0 -- -- 56
2019-04-03 10:00:00 11.8 15 Sudoeste 26 Sudoeste 0 -- -- 69
2019-04-03 09:00:00 8.4 13 Sudoeste 22 Sudoeste 0 -- -- 79
2019-04-03 08:00:00 7 10 Sudoeste 17 Sudoeste 0 -- -- 83
2019-04-03 07:00:00 7.2 10 Sudoeste 17 Sudoeste 0 -- -- 82
2019-04-03 06:00:00 7.8 10 Sudoeste 17 Sudoeste 0 -- -- 80
2019-04-03 05:00:00 8.2 11 Sudoeste 16 Sudoeste 0 -- -- 80
2019-04-03 04:00:00 8.5 12 Sudoeste 17 Sudoeste 0 -- -- 80
2019-04-03 03:00:00 8 9 Sudoeste 13 Sudoeste 0 -- -- 85
2019-04-03 02:00:00 6.9 4 Sudoeste 6 Sudoeste 0 -- -- 91
2019-04-03 01:00:00 7.4 4 Sudeste 8 Sudeste 0 -- -- 87
2019-04-03 00:00:00 8.3 2 Sur 7 Sur 0 -- -- 85
2019-04-02 23:00:00 9.7 3 Sudeste 9 Sur 0 -- -- 79
2019-04-02 22:00:00 11.1 5 Nordeste 20 Noroeste 0 -- -- 74
2019-04-02 21:00:00 13 9 Norte 31 Oeste 0 -- -- 66
2019-04-02 20:00:00 15.7 21 Oeste 30 Oeste 0 -- -- 51
2019-04-02 19:00:00 16.9 21 Oeste 31 Sudoeste 0 -- -- 48
2019-04-02 18:00:00 19.3 10 Noroeste 31 Oeste 0 -- -- 48
2019-04-02 17:00:00 18.4 15 Oeste 28 Oeste 0 -- -- 47
2019-04-02 16:00:00 17.6 15 Sudoeste 32 Sudoeste 0 -- -- 51
2019-04-02 15:00:00 16.9 15 Sudoeste 29 Sudoeste 0 -- -- 55
2019-04-02 14:00:00 15.4 14 Sudoeste 28 Oeste 0 -- -- 64
2019-04-02 13:00:00 13.6 17 Oeste 24 Oeste 0 -- -- 71
2019-04-02 12:00:00 12.1 16 Oeste 26 Sudoeste 0 -- -- 79
2019-04-02 11:00:00 11 13 Sudoeste 22 Sudoeste 0 -- -- 84
2019-04-02 10:00:00 10.2 10 Sudoeste 17 Sudoeste 0 -- -- 90
2019-04-02 09:00:00 8.3 5 Sudoeste 9 Oeste 0 -- -- 94
2019-04-02 08:00:00 7 0 Calma 3 Noroeste 0 -- -- 94
2019-04-02 07:00:00 7 0 Calma 5 Sudoeste 0 -- -- 93
2019-04-02 06:00:00 8.1 0 Calma 4 Oeste 0 -- -- 94
2019-04-02 05:00:00 7.1 0 Calma 2 Norte 0 -- -- 93
2019-04-02 04:00:00 7.8 0 Calma 6 Nordeste 0 -- -- 92
2019-04-02 03:00:00 7.9 0 Calma 4 Sudoeste 0 -- -- 92
2019-04-02 02:00:00 8.6 0 Calma 9 Sudoeste 0 -- -- 89
2019-04-02 01:00:00 9.3 3 Sur 9 Sudeste 0 -- -- 89
2019-04-02 00:00:00 9.3 4 Sur 8 Sur 0.2 -- -- 87
2019-04-01 23:00:00 9.8 2 Este 7 Sudeste 0 -- -- 87
2019-04-01 22:00:00 10.2 0 Calma 6 Este 0 -- -- 84
2019-04-01 21:00:00 11.5 3 Este 6 Nordeste 0 -- -- 77
2019-04-01 20:00:00 15.3 3 Este 5 Este 0 -- -- 56
2019-04-01 19:00:00 13 3 Oeste 11 Sudoeste 0 -- -- 65
2019-04-01 18:00:00 12.1 6 Oeste 24 Sudoeste 0 -- -- 81
2019-04-01 17:00:00 10.8 11 Sudoeste 20 Sur 1.6 -- -- 84
2019-04-01 16:00:00 11.2 10 Sur 23 Sudoeste 0.6 -- -- 79
2019-04-01 15:00:00 13 10 Sudeste 22 Sudeste 0 -- -- 73
2019-04-01 14:00:00 15.1 6 Sudeste 18 Sudeste 0 -- -- 63
2019-04-01 13:00:00 15.2 3 Oeste 12 Sudoeste 0 -- -- 60
2019-04-01 12:00:00 15 5 Este 13 Nordeste 0 -- -- 64
2019-04-01 11:00:00 11.6 7 Este 13 Nordeste 0 -- -- 84
2019-04-01 10:00:00 9.8 7 Sudeste 15 Este 0 -- -- 90
2019-04-01 09:00:00 8.7 9 Sudeste 14 Sudeste 0 -- -- 93
2019-04-01 08:00:00 8.5 3 Este 8 Este 0 -- -- 93
2019-04-01 07:00:00 8.4 3 Este 13 Nordeste 0 -- -- 93
2019-04-01 06:00:00 8.3 6 Este 11 Este 0 -- -- 93
2019-04-01 05:00:00 8.3 3 Este 11 Sudeste 0 -- -- 93
2019-04-01 04:00:00 8.3 4 Este 14 Este 0 -- -- 93
2019-04-01 03:00:00 8.3 5 Este 15 Este 0 -- -- 92
2019-04-01 02:00:00 8.3 8 Este 17 Este 0 -- -- 92
2019-04-01 01:00:00 8.3 6 Este 23 Este 0 -- -- 91
2019-04-01 00:00:00 8.4 6 Este 22 Este 0 -- -- 91
2019-03-31 23:00:00 8.4 9 Este 24 Nordeste 0.2 -- -- 93
2019-03-31 22:00:00 8.4 12 Este 24 Nordeste 0.2 -- -- 92
2019-03-31 21:00:00 8.5 12 Este 24 Nordeste 0 -- -- 92
2019-03-31 20:00:00 8.7 14 Este 26 Nordeste 0 -- -- 90
2019-03-31 19:00:00 9 12 Este 28 Este 0 -- -- 88
2019-03-31 18:00:00 9.4 14 Este 27 Nordeste 0 -- -- 86
2019-03-31 17:00:00 8.9 15 Este 30 Este 0 -- -- 87
2019-03-31 16:00:00 9 10 Este 27 Nordeste 0 -- -- 86
2019-03-31 15:00:00 9.4 13 Este 26 Este 0 -- -- 85
2019-03-31 14:00:00 8.5 12 Este 27 Este 0.4 -- -- 87
2019-03-31 13:00:00 8.2 14 Este 27 Este 0.2 -- -- 87
2019-03-31 12:00:00 7.5 11 Este 28 Este 2 -- -- 92
2019-03-31 11:00:00 6.2 14 Este 30 Nordeste 2.6 -- -- 92
2019-03-31 10:00:00 6.1 17 Este 28 Este 2.8 -- -- 91
2019-03-31 09:00:00 6.1 11 Este 31 Este 2 -- -- 90
2019-03-31 08:00:00 6.3 11 Este 27 Este 1.8 -- -- 90
2019-03-31 07:00:00 5.8 9 Este 30 Este 0.4 -- -- 86
2019-03-31 06:00:00 6.7 10 Este 29 Este 0 -- -- 69
2019-03-31 05:00:00 7 12 Este 31 Este 0 -- -- 64
2019-03-31 03:00:00 6.8 17 Este 31 Este 0 -- -- 67
2019-03-31 01:00:00 7.4 15 Este 33 Este 0 -- -- 68
2019-03-31 00:00:00 7.5 16 Este 34 Este 0 -- -- 71
2019-03-30 23:00:00 8.4 19 Este 46 Este 0 -- -- 70
2019-03-30 22:00:00 9.9 16 Este 36 Nordeste 0 -- -- 67
2019-03-30 21:00:00 11.1 19 Este 36 Este 0 -- -- 62
2019-03-30 20:00:00 12.6 17 Este 37 Este 0 -- -- 56
2019-03-30 19:00:00 15.8 25 Sudeste 39 Este 0 -- -- 40
2019-03-30 18:00:00 17.4 14 Este 39 Este 0 -- -- 35
2019-03-30 17:00:00 17.6 22 Este 35 Este 0 -- -- 35
2019-03-30 16:00:00 18.2 14 Este 37 Sudeste 0 -- -- 34
2019-03-30 15:00:00 17.3 13 Este 37 Sudeste 0 -- -- 36
2019-03-30 14:00:00 15.7 19 Este 38 Sudeste 0 -- -- 40
2019-03-30 13:00:00 14.5 16 Este 43 Este 0 -- -- 43
2019-03-30 12:00:00 13 16 Este 42 Sudeste 0 -- -- 50
2019-03-30 11:00:00 10.1 17 Este 40 Este 0 -- -- 61
2019-03-30 10:00:00 9.4 16 Este 36 Este 0 -- -- 65
2019-03-30 09:00:00 7.6 17 Este 37 Este 0 -- -- 70
2019-03-30 08:00:00 4.9 16 Este 28 Este 0 -- -- 81
2019-03-30 07:00:00 4 13 Este 21 Este 0 -- -- 82
2019-03-30 06:00:00 4.5 11 Este 27 Este 0 -- -- 80
2019-03-30 05:00:00 4.9 13 Este 26 Este 0 -- -- 75
2019-03-30 04:00:00 5.7 11 Este 26 Este 0 -- -- 74
2019-03-30 03:00:00 6 10 Este 31 Este 0 -- -- 71
2019-03-30 02:00:00 6 10 Este 24 Nordeste 0 -- -- 71
2019-03-30 01:00:00 5.9 14 Este 25 Este 0 -- -- 69
2019-03-30 00:00:00 6.9 10 Este 26 Este 0 -- -- 65
2019-03-29 23:00:00 7.5 9 Este 27 Este 0 -- -- 65
2019-03-29 22:00:00 8.7 12 Este 27 Nordeste 0 -- -- 60
2019-03-29 21:00:00 10 12 Este 35 Este 0 -- -- 50
2019-03-29 20:00:00 11.6 18 Sudeste 35 Este 0 -- -- 44
2019-03-29 19:00:00 13.5 23 Sudeste 40 Sudeste 0 -- -- 41
2019-03-29 18:00:00 14.7 23 Sudeste 39 Este 0 -- -- 38
2019-03-29 17:00:00 14.8 26 Sudeste 42 Sudeste 0 -- -- 36
2019-03-29 16:00:00 13.7 25 Sudeste 44 Sudeste 0 -- -- 38
2019-03-29 15:00:00 13.7 26 Sudeste 50 Sudeste 0 -- -- 39
2019-03-29 14:00:00 13.3 28 Sudeste 48 Sudeste 0 -- -- 39
2019-03-29 13:00:00 13.6 27 Sudeste 50 Sudeste 0 -- -- 40
2019-03-29 12:00:00 12.5 25 Sudeste 45 Sudeste 0 -- -- 42
2019-03-29 11:00:00 11.5 17 Este 39 Sudeste 0 -- -- 42
2019-03-29 10:00:00 9.3 13 Este 30 Este 0 -- -- 49
2019-03-29 09:00:00 5.9 12 Este 27 Este 0 -- -- 71
2019-03-29 08:00:00 2.7 9 Este 25 Este 0 -- -- 86
2019-03-29 07:00:00 1.8 15 Este 25 Este 0 -- -- 82
2019-03-29 06:00:00 2.3 10 Este 25 Este 0 -- -- 74
2019-03-29 05:00:00 2.5 11 Este 22 Este 0 -- -- 66
2019-03-29 04:00:00 3 13 Este 24 Nordeste 0 -- -- 61
2019-03-29 03:00:00 3.5 12 Este 28 Este 0 -- -- 58
2019-03-29 02:00:00 3.9 10 Nordeste 18 Nordeste 0 -- -- 54
2019-03-29 01:00:00 4.4 12 Nordeste 20 Este 0 -- -- 54
2019-03-29 00:00:00 5.1 12 Este 18 Este 0 -- -- 49
2019-03-28 23:00:00 5.8 7 Nordeste 10 Nordeste 0 -- -- 37
2019-03-28 22:00:00 8.8 6 Este 15 Este 0 -- -- 31
2019-03-28 21:00:00 11.2 9 Sudeste 21 Sudeste 0 -- -- 28
2019-03-28 20:00:00 13.1 12 Sudeste 27 Sudeste 0 -- -- 26
2019-03-28 19:00:00 15.9 16 Sudeste 37 Sudeste 0 -- -- 21
2019-03-28 18:00:00 17.3 17 Sudeste 36 Nordeste 0 -- -- 21
2019-03-28 17:00:00 17.9 14 Este 30 Sudeste 0 -- -- 20
2019-03-28 16:00:00 18.3 16 Este 33 Nordeste 0 -- -- 19
2019-03-28 15:00:00 17.1 17 Este 33 Este 0 -- -- 19
2019-03-28 14:00:00 17.1 18 Este 33 Sudeste 0 -- -- 20
2019-03-28 13:00:00 16 14 Este 32 Sudeste 0 -- -- 23
2019-03-28 12:00:00 14.5 15 Este 28 Este 0 -- -- 22
2019-03-28 11:00:00 12.5 13 Este 27 Este 0 -- -- 31
2019-03-28 10:00:00 10.4 12 Este 23 Este 0 -- -- 41
2019-03-28 09:00:00 6.4 11 Este 22 Este 0 -- -- 51
2019-03-28 08:00:00 1.3 10 Este 16 Este 0 -- -- 67
2019-03-28 07:00:00 -0.2 8 Nordeste 12 Nordeste 0 -- -- 72
2019-03-28 06:00:00 -0.5 4 Nordeste 12 Nordeste 0 -- -- 74
2019-03-28 05:00:00 0.5 9 Nordeste 17 Este 0 -- -- 71
2019-03-28 04:00:00 1 10 Nordeste 16 Nordeste 0 -- -- 70
2019-03-28 03:00:00 2 9 Nordeste 18 Este 0 -- -- 68
2019-03-28 02:00:00 3.6 10 Este 19 Nordeste 0 -- -- 63
2019-03-28 01:00:00 4.1 8 Nordeste 12 Nordeste 0 -- -- 60
2019-03-28 00:00:00 5.5 7 Este 18 Este 0 -- -- 52
2019-03-27 23:00:00 6.8 12 Este 19 Nordeste 0 -- -- 40
2019-03-27 22:00:00 8.8 6 Este 15 Este 0 -- -- 32
2019-03-27 21:00:00 10 3 Este 10 Nordeste 0 -- -- 27
2019-03-27 20:00:00 12 3 Este 15 Sudeste 0 -- -- 22
2019-03-27 19:00:00 15.4 8 Este 33 Sudeste 0 -- -- 17
2019-03-27 18:00:00 16.2 14 Este 32 Este 0 -- -- 17
2019-03-27 17:00:00 17 11 Este 33 Este 0 -- -- 17
2019-03-27 16:00:00 17 12 Este 33 Este 0 -- -- 18
2019-03-27 15:00:00 16.5 17 Este 36 Este 0 -- -- 17
2019-03-27 14:00:00 15.8 13 Este 38 Nordeste 0 -- -- 21
2019-03-27 13:00:00 14.7 13 Este 31 Sudeste 0 -- -- 26
2019-03-27 12:00:00 12.7 15 Este 34 Este 0 -- -- 28
2019-03-27 11:00:00 11.7 13 Este 34 Este 0 -- -- 34
2019-03-27 10:00:00 9.2 11 Este 23 Este 0 -- -- 51
2019-03-27 09:00:00 6.2 10 Nordeste 18 Nordeste 0 -- -- 66
2019-03-27 08:00:00 1.9 8 Este 14 Nordeste 0 -- -- 86
2019-03-27 07:00:00 0.7 9 Este 14 Este 0 -- -- 85
2019-03-27 06:00:00 1.6 10 Este 22 Este 0 -- -- 82
2019-03-27 05:00:00 3.8 8 Este 22 Este 0 -- -- 73
2019-03-27 04:00:00 4.1 9 Este 27 Nordeste 0 -- -- 74
2019-03-27 03:00:00 4.1 13 Este 32 Este 0 -- -- 76
2019-03-27 02:00:00 4.8 13 Este 31 Este 0 -- -- 75
2019-03-27 01:00:00 5.8 16 Este 42 Nordeste 0 -- -- 72
2019-03-27 00:00:00 6.4 16 Este 33 Nordeste 0 -- -- 69